sim
Sign-in with your pilot id or email,
or register
Callsign
Passwort

Schedule Details

Flight Number: RYR2170 (1)
Departure: Thessaloniki International Airport (LGTS) at 07:05
Arrival: Bratislava M. R. Stefanik Airport (LZIB) at 08:55
Route: Ryanair Passenger Schedule. Enter filed route here before submitting Pirep.

Weather Information
Getting current METAR information for LGTS 211150Z 34014KT CAVOK 16/00 Q1023 NOSIG
Getting current METAR information for LZIB 211130Z 31009KT 270V350 9999 FEW036 SCT079 11/02 Q1026 NOSIG

Schedule Frequency

Route Map